createdAt,value
2019-04-28T00:00:53.006Z,4.65
2019-04-28T00:03:22.958Z,3.12
2019-04-28T00:05:52.719Z,5.03
2019-04-28T00:08:22.482Z,5.50
2019-04-28T00:10:53.371Z,4.45
2019-04-28T00:13:23.029Z,4.92
2019-04-28T00:15:54.680Z,3.85
2019-04-28T00:18:24.598Z,3.85
2019-04-28T00:21:04.805Z,4.83
2019-04-28T00:23:38.767Z,3.42
2019-04-28T00:26:21.890Z,3.87
2019-04-28T00:28:51.531Z,4.72
2019-04-28T00:31:21.373Z,4.28
2019-04-28T00:33:52.240Z,4.45
2019-04-28T00:36:21.924Z,5.03
2019-04-28T00:38:51.588Z,5.58
2019-04-28T00:41:21.438Z,7.22
2019-04-28T00:43:51.977Z,5.08
2019-04-28T00:46:23.230Z,8.40
2019-04-28T00:48:52.867Z,6.03
2019-04-28T00:51:22.581Z,6.97
2019-04-28T00:53:52.144Z,9.03
2019-04-28T00:56:21.849Z,7.10
2019-04-28T00:58:53.072Z,7.85
2019-04-28T01:01:24.482Z,5.95
2019-04-28T01:03:54.177Z,5.33
2019-04-28T01:06:23.809Z,7.20
2019-04-28T01:08:53.443Z,6.12
2019-04-28T01:11:23.182Z,7.37
2019-04-28T01:13:52.838Z,9.98
2019-04-28T01:16:26.822Z,10.63
2019-04-28T01:19:03.764Z,6.40
2019-04-28T01:21:37.683Z,6.53
2019-04-28T01:24:07.449Z,6.97
2019-04-28T01:26:37.105Z,7.33
2019-04-28T01:29:06.746Z,8.00
2019-04-28T01:31:39.512Z,8.50
2019-04-28T01:34:22.693Z,7.08
2019-04-28T01:36:52.332Z,6.10
2019-04-28T01:39:22.026Z,8.33
2019-04-28T01:41:51.594Z,10.15
2019-04-28T01:44:21.258Z,9.45
2019-04-28T01:46:51.818Z,6.58
2019-04-28T01:49:21.384Z,5.53
2019-04-28T01:52:00.527Z,6.95
2019-04-28T01:54:30.272Z,8.58
2019-04-28T01:57:01.392Z,7.53
2019-04-28T01:59:32.179Z,5.17
2019-04-28T02:02:01.864Z,5.12
2019-04-28T02:04:32.496Z,4.25
2019-04-28T02:07:02.190Z,4.75
2019-04-28T02:09:31.833Z,4.92
2019-04-28T02:12:01.433Z,3.70
2019-04-28T02:14:31.966Z,6.25
2019-04-28T02:17:01.573Z,3.47
2019-04-28T02:19:32.992Z,5.62
2019-04-28T02:22:13.028Z,3.45
2019-04-28T02:24:42.687Z,6.28
2019-04-28T02:27:12.185Z,6.30
2019-04-28T02:29:41.854Z,3.25
2019-04-28T02:32:13.150Z,6.12
2019-04-28T02:34:43.183Z,4.67
2019-04-28T02:37:12.876Z,3.12
2019-04-28T02:39:42.387Z,5.35
2019-04-28T02:42:11.952Z,5.10
2019-04-28T02:44:41.603Z,4.47
2019-04-28T02:47:11.353Z,6.50
2019-04-28T02:49:51.333Z,3.10
2019-04-28T02:52:30.645Z,4.33
2019-04-28T02:55:03.014Z,4.65
2019-04-28T02:57:32.063Z,3.27
2019-04-28T03:00:01.819Z,4.60
2019-04-28T03:02:33.532Z,3.72
2019-04-28T03:05:03.749Z,3.65
2019-04-28T03:07:33.381Z,4.92
2019-04-28T03:10:03.851Z,3.08
2019-04-28T03:12:33.813Z,4.33
2019-04-28T03:15:04.745Z,5.67
2019-04-28T03:17:34.370Z,4.75
2019-04-28T03:20:05.506Z,6.03
2019-04-28T03:22:35.113Z,5.58
2019-04-28T03:25:10.776Z,5.55
2019-04-28T03:27:52.819Z,8.43
2019-04-28T03:30:43.990Z,10.08
2019-04-28T03:33:18.640Z,7.20
2019-04-28T03:35:44.398Z,7.90
2019-04-28T03:38:14.076Z,7.28
2019-04-28T03:40:44.811Z,8.75
2019-04-28T03:43:14.861Z,10.78
2019-04-28T03:46:04.084Z,6.10
2019-04-28T03:48:33.964Z,8.73
2019-04-28T03:51:03.669Z,10.05
2019-04-28T03:53:33.221Z,11.03
2019-04-28T03:56:02.850Z,7.58
2019-04-28T03:58:32.493Z,9.18
2019-04-28T04:01:03.220Z,12.00
2019-04-28T04:03:33.148Z,9.10
2019-04-28T04:06:02.637Z,11.80
2019-04-28T04:08:32.197Z,9.30
2019-04-28T04:11:15.273Z,10.60
2019-04-28T04:14:04.346Z,11.45
2019-04-28T04:16:47.466Z,9.48
2019-04-28T04:19:20.158Z,9.53
2019-04-28T04:21:52.291Z,9.63
2019-04-28T04:24:20.522Z,13.68
2019-04-28T04:26:50.588Z,8.55
2019-04-28T04:29:21.656Z,11.08
2019-04-28T04:31:51.423Z,12.98
2019-04-28T04:34:21.134Z,10.70
2019-04-28T04:36:50.983Z,11.97
2019-04-28T04:39:20.796Z,10.30
2019-04-28T04:41:50.551Z,11.55
2019-04-28T04:44:21.106Z,10.50
2019-04-28T04:46:51.039Z,13.20
2019-04-28T04:49:21.487Z,10.95
2019-04-28T04:51:51.428Z,9.58
2019-04-28T04:54:20.990Z,9.60
2019-04-28T04:56:50.719Z,13.58
2019-04-28T04:59:20.406Z,8.85
2019-04-28T05:01:57.336Z,8.95
2019-04-28T05:04:31.013Z,8.63
2019-04-28T05:07:00.547Z,8.03
2019-04-28T05:09:31.181Z,6.08
2019-04-28T05:12:00.847Z,8.13
2019-04-28T05:14:30.485Z,9.18
2019-04-28T05:17:00.853Z,9.80
2019-04-28T05:19:31.726Z,10.70
2019-04-28T05:22:01.353Z,11.88
2019-04-28T05:24:32.638Z,13.50
2019-04-28T05:27:02.325Z,8.88
2019-04-28T05:29:31.898Z,8.53
2019-04-28T05:32:03.377Z,7.20
2019-04-28T05:34:32.758Z,9.95
2019-04-28T05:37:02.309Z,6.85
2019-04-28T05:39:31.814Z,9.78
2019-04-28T05:42:01.373Z,11.63
2019-04-28T05:44:32.016Z,8.30
2019-04-28T05:47:01.909Z,9.03
2019-04-28T05:49:33.053Z,11.70
2019-04-28T05:52:04.317Z,8.15
2019-04-28T05:54:40.009Z,6.70
2019-04-28T05:57:11.248Z,5.58
2019-04-28T05:59:54.442Z,5.80
2019-04-28T06:02:25.785Z,5.60
2019-04-28T06:04:55.414Z,2.10
2019-04-28T06:07:30.499Z,5.87
2019-04-28T06:10:00.336Z,2.87
2019-04-28T06:12:30.263Z,2.37
2019-04-28T06:15:01.241Z,1.47
2019-04-28T06:17:30.999Z,0.60
2019-04-28T06:20:00.647Z,0.82
2019-04-28T06:22:30.220Z,0.62
2019-04-28T06:24:59.929Z,0.78
2019-04-28T06:27:32.443Z,0.50
2019-04-28T06:30:00.547Z,0.00
2019-04-28T06:32:30.109Z,0.65
2019-04-28T06:34:59.695Z,4.10
2019-04-28T06:37:29.409Z,2.35
2019-04-28T06:39:58.898Z,1.75
2019-04-28T06:42:28.531Z,0.70
2019-04-28T06:44:58.365Z,0.57
2019-04-28T06:47:27.937Z,1.47
2019-04-28T06:49:58.404Z,0.47
2019-04-28T06:52:28.013Z,1.07
2019-04-28T06:54:57.719Z,1.40
2019-04-28T06:57:27.225Z,1.32
2019-04-28T06:59:56.829Z,0.93
2019-04-28T07:02:26.293Z,0.23
2019-04-28T07:05:02.347Z,0.28
2019-04-28T07:07:27.054Z,0.03
2019-04-28T07:09:56.611Z,0.98
2019-04-28T07:12:26.137Z,1.82
2019-04-28T07:14:55.674Z,4.40
2019-04-28T07:17:25.177Z,7.12
2019-04-28T07:20:02.270Z,11.38
2019-04-28T07:22:33.609Z,7.10
2019-04-28T07:25:03.355Z,5.22
2019-04-28T07:27:33.126Z,3.40
2019-04-28T07:30:03.386Z,7.05
2019-04-28T07:32:33.924Z,4.40
2019-04-28T07:35:03.699Z,2.37
2019-04-28T07:37:33.436Z,2.50
2019-04-28T07:40:06.728Z,0.60
2019-04-28T07:42:36.522Z,0.45
2019-04-28T07:45:07.155Z,0.85
2019-04-28T07:47:36.788Z,2.33
2019-04-28T07:50:07.742Z,4.75
2019-04-28T07:52:57.411Z,6.83
2019-04-28T07:55:27.097Z,2.83
2019-04-28T07:57:56.725Z,2.33
2019-04-28T08:00:27.990Z,3.52
2019-04-28T08:02:57.558Z,4.70
2019-04-28T08:05:27.117Z,3.02
2019-04-28T08:07:56.681Z,1.20
2019-04-28T08:10:26.198Z,5.70
2019-04-28T08:12:55.773Z,1.45
2019-04-28T08:15:25.377Z,1.55
2019-04-28T08:17:54.891Z,1.75
2019-04-28T08:20:24.600Z,0.70
2019-04-28T08:22:54.338Z,1.47
2019-04-28T08:25:24.019Z,1.42
2019-04-28T08:27:53.863Z,1.07
2019-04-28T08:30:23.550Z,4.30
2019-04-28T08:32:54.814Z,1.62
2019-04-28T08:35:24.426Z,1.52
2019-04-28T08:37:53.958Z,4.87
2019-04-28T08:40:24.594Z,2.90
2019-04-28T08:42:54.149Z,3.12
2019-04-28T08:45:23.644Z,3.37
2019-04-28T08:47:53.253Z,0.70
2019-04-28T08:50:22.823Z,2.12
2019-04-28T08:52:52.605Z,1.75
2019-04-28T08:55:22.065Z,0.60
2019-04-28T08:57:51.702Z,3.25
2019-04-28T09:00:22.042Z,0.30
2019-04-28T09:02:51.725Z,1.02
2019-04-28T09:05:21.226Z,1.20
2019-04-28T09:07:50.850Z,0.93
2019-04-28T09:10:20.562Z,1.57
2019-04-28T09:12:50.254Z,0.62
2019-04-28T09:15:19.902Z,2.72
2019-04-28T09:17:49.525Z,1.62
2019-04-28T09:20:19.166Z,1.70
2019-04-28T09:22:48.796Z,1.95
2019-04-28T09:25:18.365Z,1.07
2019-04-28T09:27:47.993Z,2.80
2019-04-28T09:30:19.762Z,1.25
2019-04-28T09:32:49.370Z,1.85
2019-04-28T09:35:18.942Z,1.52
2019-04-28T09:37:48.619Z,1.05
2019-04-28T09:40:18.400Z,3.22
2019-04-28T09:43:01.625Z,1.47
2019-04-28T09:45:32.982Z,1.37
2019-04-28T09:48:02.627Z,1.35
2019-04-28T09:50:32.289Z,2.85
2019-04-28T09:53:01.790Z,1.00
2019-04-28T09:55:31.430Z,1.62
2019-04-28T09:58:00.981Z,1.30
2019-04-28T10:00:31.647Z,1.22
2019-04-28T10:03:01.373Z,1.87
2019-04-28T10:05:30.933Z,1.47
2019-04-28T10:08:00.604Z,2.60
2019-04-28T10:10:30.206Z,2.62
2019-04-28T10:12:59.924Z,1.05
2019-04-28T10:15:29.500Z,2.55
2019-04-28T10:17:59.309Z,1.20
2019-04-28T10:20:28.944Z,1.65
2019-04-28T10:22:58.578Z,1.02
2019-04-28T10:25:28.146Z,1.37
2019-04-28T10:27:57.772Z,0.65
2019-04-28T10:30:27.413Z,0.85
2019-04-28T10:32:56.977Z,3.10
2019-04-28T10:35:26.476Z,1.20
2019-04-28T10:37:56.173Z,0.50
2019-04-28T10:40:41.748Z,1.87
2019-04-28T10:43:11.499Z,0.88
2019-04-28T10:45:42.681Z,2.33
2019-04-28T10:48:12.321Z,2.52
2019-04-28T10:50:41.961Z,2.12
2019-04-28T10:53:11.509Z,1.87
2019-04-28T10:55:41.075Z,2.42
2019-04-28T10:58:10.635Z,0.95
2019-04-28T11:00:42.102Z,2.25
2019-04-28T11:03:11.729Z,3.98
2019-04-28T11:05:43.755Z,1.87
2019-04-28T11:08:17.394Z,1.95
2019-04-28T11:10:47.294Z,2.90
2019-04-28T11:13:17.107Z,5.58
2019-04-28T11:15:46.814Z,1.25
2019-04-28T11:18:16.935Z,1.80
2019-04-28T11:20:46.542Z,1.62
2019-04-28T11:23:16.112Z,3.83
2019-04-28T11:25:45.865Z,1.80
2019-04-28T11:28:15.422Z,2.08
2019-04-28T11:30:46.097Z,2.30
2019-04-28T11:33:23.061Z,1.15
2019-04-28T11:35:53.814Z,1.65
2019-04-28T11:38:23.525Z,1.57
2019-04-28T11:40:53.162Z,1.57
2019-04-28T11:43:22.745Z,3.02
2019-04-28T11:45:52.457Z,2.52
2019-04-28T11:48:22.014Z,0.88
2019-04-28T11:50:51.700Z,2.35
2019-04-28T11:53:21.253Z,1.27
2019-04-28T11:55:50.919Z,1.95
2019-04-28T11:58:20.490Z,1.20
2019-04-28T12:00:50.203Z,0.78
2019-04-28T12:03:19.810Z,1.40
2019-04-28T12:05:49.526Z,1.22
2019-04-28T12:08:19.021Z,1.55
2019-04-28T12:11:02.150Z,1.35
2019-04-28T12:13:36.079Z,0.47
2019-04-28T12:16:25.738Z,1.22
2019-04-28T12:19:03.774Z,0.88
2019-04-28T12:21:33.421Z,0.98
2019-04-28T12:24:03.058Z,2.08
2019-04-28T12:26:32.702Z,0.80
2019-04-28T12:29:02.311Z,0.70
2019-04-28T12:31:31.918Z,1.35
2019-04-28T12:34:01.433Z,1.50
2019-04-28T12:36:31.002Z,1.10
2019-04-28T12:39:00.633Z,1.20
2019-04-28T12:41:31.989Z,0.60
2019-04-28T12:44:01.572Z,0.85
2019-04-28T12:46:32.569Z,1.37
2019-04-28T12:49:06.752Z,0.65
2019-04-28T12:51:36.230Z,0.50
2019-04-28T12:54:11.760Z,0.62
2019-04-28T12:56:41.388Z,1.30
2019-04-28T12:59:15.178Z,1.02
2019-04-28T13:01:58.606Z,0.43
2019-04-28T13:04:33.047Z,0.80
2019-04-28T13:07:04.087Z,0.53
2019-04-28T13:09:33.825Z,1.62
2019-04-28T13:12:03.745Z,1.87
2019-04-28T13:14:33.261Z,0.82
2019-04-28T13:17:02.972Z,0.45
2019-04-28T13:19:32.667Z,1.00
2019-04-28T13:22:04.041Z,1.85
2019-04-28T13:24:33.430Z,0.98
2019-04-28T13:27:03.014Z,0.72
2019-04-28T13:29:32.502Z,0.50
2019-04-28T13:32:02.696Z,2.17
2019-04-28T13:34:33.895Z,0.72
2019-04-28T13:37:03.573Z,1.10
2019-04-28T13:39:34.820Z,0.53
2019-04-28T13:42:04.840Z,2.22
2019-04-28T13:44:54.241Z,0.57
2019-04-28T13:47:23.815Z,2.17
2019-04-28T13:50:10.251Z,0.75
2019-04-28T13:52:39.793Z,0.80
2019-04-28T13:55:27.255Z,1.75
2019-04-28T13:57:58.580Z,1.25
2019-04-28T14:00:41.898Z,0.70
2019-04-28T14:03:29.657Z,3.00
2019-04-28T14:06:00.981Z,1.32
2019-04-28T14:08:30.726Z,4.60
2019-04-28T14:11:00.330Z,1.87
2019-04-28T14:13:30.086Z,0.62
2019-04-28T14:16:00.163Z,2.45
2019-04-28T14:18:29.777Z,1.52
2019-04-28T14:21:00.010Z,1.12
2019-04-28T14:23:29.578Z,1.20
2019-04-28T14:25:59.070Z,0.70
2019-04-28T14:28:28.726Z,2.10
2019-04-28T14:30:58.358Z,1.37
2019-04-28T14:33:28.131Z,1.92
2019-04-28T14:35:57.735Z,0.60
2019-04-28T14:38:28.680Z,0.57
2019-04-28T14:40:58.381Z,4.65
2019-04-28T14:43:28.049Z,1.57
2019-04-28T14:45:57.574Z,1.50
2019-04-28T14:48:27.329Z,0.70
2019-04-28T14:50:56.893Z,1.65
2019-04-28T14:53:29.403Z,2.40
2019-04-28T14:55:59.142Z,1.27
2019-04-28T14:58:28.614Z,1.20
2019-04-28T15:01:14.742Z,0.98
2019-04-28T15:03:53.218Z,1.98
2019-04-28T15:06:24.384Z,0.90
2019-04-28T15:08:55.615Z,0.88
2019-04-28T15:11:26.861Z,0.72
2019-04-28T15:13:56.484Z,1.65
2019-04-28T15:16:26.111Z,1.17
2019-04-28T15:18:57.193Z,1.87
2019-04-28T15:21:26.870Z,1.05
2019-04-28T15:23:57.085Z,2.80
2019-04-28T15:26:26.821Z,0.75
2019-04-28T15:28:56.451Z,0.47
2019-04-28T15:31:26.019Z,1.32
2019-04-28T15:33:57.095Z,1.55
2019-04-28T15:36:26.660Z,1.00
2019-04-28T15:38:56.141Z,1.75
2019-04-28T15:41:25.781Z,0.82
2019-04-28T15:43:55.421Z,1.32
2019-04-28T15:46:25.162Z,1.90
2019-04-28T15:48:54.700Z,3.80
2019-04-28T15:51:24.233Z,1.52
2019-04-28T15:53:53.915Z,2.52
2019-04-28T15:56:25.130Z,2.27
2019-04-28T15:58:56.698Z,1.70
2019-04-28T16:01:25.886Z,3.35
2019-04-28T16:03:55.514Z,0.57
2019-04-28T16:06:25.235Z,0.80
2019-04-28T16:08:56.273Z,1.12
2019-04-28T16:11:28.709Z,1.15
2019-04-28T16:13:57.101Z,1.40
2019-04-28T16:16:26.740Z,1.40
2019-04-28T16:18:56.249Z,1.00
2019-04-28T16:21:26.430Z,2.15
2019-04-28T16:23:56.144Z,1.77
2019-04-28T16:26:25.790Z,8.53
2019-04-28T16:28:55.359Z,2.35
2019-04-28T16:31:24.929Z,0.90
2019-04-28T16:33:54.553Z,0.35
2019-04-28T16:36:25.674Z,1.42
2019-04-28T16:38:57.026Z,1.45
2019-04-28T16:41:29.815Z,0.82
2019-04-28T16:44:00.279Z,2.15
2019-04-28T16:46:29.885Z,1.47
2019-04-28T16:48:59.685Z,0.62
2019-04-28T16:51:29.398Z,0.68
2019-04-28T16:53:58.890Z,0.50
2019-04-28T16:56:32.677Z,0.53
2019-04-28T16:59:20.030Z,1.37
2019-04-28T17:01:53.826Z,1.25
2019-04-28T17:04:23.521Z,2.37
2019-04-28T17:06:55.826Z,1.90
2019-04-28T17:09:25.642Z,0.40
2019-04-28T17:11:55.349Z,0.20
2019-04-28T17:14:25.095Z,0.95
2019-04-28T17:16:54.809Z,3.22
2019-04-28T17:19:24.519Z,2.25
2019-04-28T17:21:54.295Z,1.02
2019-04-28T17:24:25.001Z,0.85
2019-04-28T17:26:55.766Z,1.45
2019-04-28T17:29:25.378Z,1.17
2019-04-28T17:31:55.286Z,3.20
2019-04-28T17:34:24.998Z,1.10
2019-04-28T17:36:56.379Z,4.60
2019-04-28T17:39:27.654Z,1.80
2019-04-28T17:41:57.284Z,0.40
2019-04-28T17:44:26.805Z,0.90
2019-04-28T17:46:56.751Z,2.30
2019-04-28T17:49:28.028Z,1.52
2019-04-28T17:51:57.677Z,1.07
2019-04-28T17:54:28.343Z,2.58
2019-04-28T17:56:58.061Z,1.77
2019-04-28T17:59:27.592Z,1.80
2019-04-28T18:02:15.014Z,1.55
2019-04-28T18:05:01.761Z,3.37
2019-04-28T18:07:33.034Z,2.52
2019-04-28T18:10:07.649Z,2.62
2019-04-28T18:12:38.506Z,3.52
2019-04-28T18:15:27.244Z,1.98
2019-04-28T18:18:01.138Z,4.20
2019-04-28T18:20:32.473Z,4.72
2019-04-28T18:23:03.533Z,5.25
2019-04-28T18:25:33.168Z,5.53
2019-04-28T18:28:02.850Z,4.65
2019-04-28T18:30:35.741Z,2.27
2019-04-28T18:33:07.215Z,3.62
2019-04-28T18:35:50.332Z,3.75
2019-04-28T18:38:35.365Z,2.17
2019-04-28T18:41:12.465Z,3.67
2019-04-28T18:43:49.579Z,1.90
2019-04-28T18:46:20.749Z,2.25
2019-04-28T18:48:50.465Z,2.45
2019-04-28T18:51:20.166Z,1.60
2019-04-28T18:53:52.469Z,1.75
2019-04-28T18:56:22.101Z,1.57
2019-04-28T18:58:57.185Z,1.47
2019-04-28T19:01:35.322Z,6.20
2019-04-28T19:04:05.122Z,1.95
2019-04-28T19:06:35.715Z,3.55
2019-04-28T19:09:21.451Z,2.58
2019-04-28T19:11:55.714Z,1.20
2019-04-28T19:14:36.039Z,1.82
2019-04-28T19:17:15.786Z,2.05
2019-04-28T19:19:48.238Z,1.25
2019-04-28T19:22:17.849Z,2.58
2019-04-28T19:24:47.586Z,0.80
2019-04-28T19:27:17.219Z,4.30
2019-04-28T19:29:46.781Z,1.22
2019-04-28T19:32:18.046Z,2.10
2019-04-28T19:34:47.752Z,4.40
2019-04-28T19:37:17.330Z,2.87
2019-04-28T19:39:47.073Z,3.90
2019-04-28T19:42:16.854Z,1.62
2019-04-28T19:44:47.957Z,3.55
2019-04-28T19:47:19.030Z,4.05
2019-04-28T19:49:50.629Z,4.40
2019-04-28T19:52:21.930Z,1.37
2019-04-28T19:55:04.892Z,2.70
2019-04-28T19:57:43.406Z,2.30
2019-04-28T20:00:32.170Z,2.70
2019-04-28T20:03:01.662Z,1.27
2019-04-28T20:05:31.488Z,1.07
2019-04-28T20:08:01.841Z,1.90
2019-04-28T20:10:33.193Z,0.65
2019-04-28T20:13:02.823Z,1.60
2019-04-28T20:15:33.569Z,1.95
2019-04-28T20:18:03.329Z,1.67
2019-04-28T20:20:34.899Z,2.10
2019-04-28T20:23:04.785Z,4.45
2019-04-28T20:25:35.500Z,0.90
2019-04-28T20:28:05.196Z,0.65
2019-04-28T20:30:34.826Z,1.77
2019-04-28T20:33:07.252Z,1.15
2019-04-28T20:35:40.394Z,0.82
2019-04-28T20:38:11.669Z,0.50
2019-04-28T20:41:02.072Z,0.28
2019-04-28T20:43:32.062Z,1.22
2019-04-28T20:46:01.800Z,0.40
2019-04-28T20:48:32.473Z,1.25
2019-04-28T20:51:02.655Z,0.23
2019-04-28T20:53:33.433Z,1.10
2019-04-28T20:56:03.140Z,0.75
2019-04-28T20:58:32.882Z,0.15
2019-04-28T21:01:02.690Z,0.40
2019-04-28T21:03:32.978Z,0.23
2019-04-28T21:06:02.525Z,0.65
2019-04-28T21:08:32.160Z,1.12
2019-04-28T21:11:01.841Z,2.70
2019-04-28T21:13:33.017Z,1.82
2019-04-28T21:16:02.642Z,1.92
2019-04-28T21:18:32.270Z,2.10
2019-04-28T21:21:02.046Z,3.08
2019-04-28T21:23:31.577Z,2.50
2019-04-28T21:26:01.123Z,3.12
2019-04-28T21:28:30.738Z,2.72
2019-04-28T21:31:00.368Z,3.80
2019-04-28T21:33:30.090Z,2.02
2019-04-28T21:35:59.777Z,1.25
2019-04-28T21:38:29.470Z,3.08
2019-04-28T21:40:59.078Z,1.92
2019-04-28T21:43:30.222Z,2.55
2019-04-28T21:46:13.237Z,4.05
2019-04-28T21:48:50.382Z,2.15
2019-04-28T21:51:20.037Z,0.93
2019-04-28T21:53:49.646Z,0.68
2019-04-28T21:56:19.278Z,5.42
2019-04-28T21:58:48.772Z,2.33
2019-04-28T22:01:21.654Z,2.70
2019-04-28T22:03:51.388Z,2.15
2019-04-28T22:06:21.310Z,0.60
2019-04-28T22:08:51.081Z,2.30
2019-04-28T22:11:20.724Z,0.98
2019-04-28T22:13:50.316Z,1.65
2019-04-28T22:16:19.993Z,2.00
2019-04-28T22:18:49.582Z,2.50
2019-04-28T22:21:19.174Z,1.25
2019-04-28T22:23:59.383Z,1.37
2019-04-28T22:26:30.662Z,2.00
2019-04-28T22:29:00.151Z,1.40
2019-04-28T22:31:29.842Z,0.70
2019-04-28T22:33:59.335Z,1.82
2019-04-28T22:36:30.127Z,1.10
2019-04-28T22:38:59.690Z,0.45
2019-04-28T22:41:29.283Z,1.75
2019-04-28T22:43:58.940Z,0.78
2019-04-28T22:46:28.390Z,0.98
2019-04-28T22:48:59.658Z,0.62
2019-04-28T22:51:29.302Z,0.60
2019-04-28T22:54:00.545Z,0.93
2019-04-28T22:56:31.865Z,0.62
2019-04-28T22:59:05.673Z,0.50
2019-04-28T23:01:42.797Z,0.50
2019-04-28T23:04:14.097Z,1.72
2019-04-28T23:06:43.802Z,1.47
2019-04-28T23:09:14.921Z,0.88
2019-04-28T23:11:44.545Z,0.20
2019-04-28T23:14:14.204Z,1.57
2019-04-28T23:16:43.811Z,1.57
2019-04-28T23:19:15.126Z,1.30
2019-04-28T23:22:01.437Z,1.98
2019-04-28T23:24:31.117Z,0.90
2019-04-28T23:27:00.753Z,1.12
2019-04-28T23:29:30.674Z,0.33
2019-04-28T23:32:00.383Z,1.20
2019-04-28T23:34:29.922Z,0.50
2019-04-28T23:36:59.481Z,0.85
2019-04-28T23:39:29.106Z,1.40
2019-04-28T23:42:00.233Z,1.07
2019-04-28T23:44:29.842Z,3.35
2019-04-28T23:47:00.568Z,0.80
2019-04-28T23:49:30.517Z,1.20
2019-04-28T23:52:04.268Z,0.90
2019-04-28T23:54:35.475Z,2.90
2019-04-28T23:57:07.315Z,2.02
2019-04-28T23:59:37.148Z,0.72
